createdAt,value
2018-03-11T00:02:16.625Z,19.27
2018-03-11T00:04:44.890Z,18.70
2018-03-11T00:07:13.174Z,16.90
2018-03-11T00:09:40.688Z,18.00
2018-03-11T00:12:08.974Z,18.33
2018-03-11T00:14:36.489Z,18.73
2018-03-11T00:17:03.997Z,18.53
2018-03-11T00:19:31.489Z,18.47
2018-03-11T00:21:58.986Z,20.13
2018-03-11T00:24:26.486Z,18.27
2018-03-11T00:26:54.742Z,20.50
2018-03-11T00:29:22.251Z,20.67
2018-03-11T00:31:49.751Z,17.90
2018-03-11T00:34:17.268Z,19.73
2018-03-11T00:36:44.758Z,17.50
2018-03-11T00:39:12.254Z,16.97
2018-03-11T00:41:40.511Z,17.80
2018-03-11T00:44:08.035Z,17.13
2018-03-11T00:46:35.548Z,20.03
2018-03-11T00:49:03.798Z,17.00
2018-03-11T00:51:31.311Z,18.37
2018-03-11T00:53:58.819Z,18.50
2018-03-11T00:56:26.345Z,18.53
2018-03-11T00:58:53.882Z,18.50
2018-03-11T01:01:21.392Z,20.30
2018-03-11T01:03:48.887Z,18.87
2018-03-11T01:06:16.395Z,17.30
2018-03-11T01:08:43.895Z,20.20
2018-03-11T01:11:12.165Z,19.23
2018-03-11T01:13:40.414Z,17.43
2018-03-11T01:16:07.954Z,17.23
2018-03-11T01:18:35.441Z,16.00
2018-03-11T01:21:02.961Z,17.53
2018-03-11T01:23:31.250Z,15.03
2018-03-11T01:25:58.784Z,16.57
2018-03-11T01:28:26.276Z,16.03
2018-03-11T01:30:53.787Z,15.37
2018-03-11T01:33:21.275Z,16.57
2018-03-11T01:35:48.787Z,16.20
2018-03-11T01:38:16.290Z,17.53
2018-03-11T01:40:43.811Z,17.83
2018-03-11T01:43:11.293Z,16.90
2018-03-11T01:45:39.515Z,17.93
2018-03-11T01:48:07.786Z,18.43
2018-03-11T01:50:35.298Z,19.20
2018-03-11T01:53:08.694Z,19.33
2018-03-11T01:55:36.207Z,19.10
2018-03-11T01:58:04.457Z,21.87
2018-03-11T02:00:31.938Z,22.13
2018-03-11T02:03:00.227Z,20.60
2018-03-11T02:05:27.736Z,24.00
2018-03-11T02:07:55.259Z,26.77
2018-03-11T02:10:22.760Z,24.83
2018-03-11T02:12:50.278Z,24.97
2018-03-11T02:15:17.765Z,25.57
2018-03-11T02:17:45.275Z,25.27
2018-03-11T02:20:12.761Z,25.60
2018-03-11T02:22:40.270Z,29.13
2018-03-11T02:25:08.519Z,29.33
2018-03-11T02:27:36.013Z,29.93
2018-03-11T02:30:04.294Z,26.70
2018-03-11T02:32:32.569Z,26.30
2018-03-11T02:35:00.822Z,24.97
2018-03-11T02:37:28.334Z,26.93
2018-03-11T02:39:55.813Z,24.27
2018-03-11T02:42:24.100Z,26.97
2018-03-11T02:44:51.611Z,28.87
2018-03-11T02:47:19.133Z,29.60
2018-03-11T02:49:46.619Z,31.47
2018-03-11T02:52:14.166Z,30.13
2018-03-11T02:54:41.698Z,29.83
2018-03-11T02:57:09.230Z,30.80
2018-03-11T02:59:36.712Z,33.67
2018-03-11T03:02:04.246Z,32.13
2018-03-11T03:04:31.765Z,32.80
2018-03-11T03:06:59.266Z,31.20
2018-03-11T03:09:26.770Z,30.67
2018-03-11T03:11:54.258Z,32.37
2018-03-11T03:14:21.789Z,33.80
2018-03-11T03:16:50.078Z,30.57
2018-03-11T03:19:17.601Z,31.23
2018-03-11T03:21:45.098Z,30.50
2018-03-11T03:24:12.619Z,33.23
2018-03-11T03:26:40.110Z,33.07
2018-03-11T03:29:07.628Z,32.50
2018-03-11T03:31:35.129Z,33.90
2018-03-11T03:34:02.639Z,34.77
2018-03-11T03:36:30.132Z,35.57
2018-03-11T03:38:58.071Z,35.03
2018-03-11T03:41:25.565Z,32.93
2018-03-11T03:43:53.062Z,31.97
2018-03-11T03:46:20.554Z,33.90
2018-03-11T03:48:48.822Z,31.93
2018-03-11T03:51:16.320Z,33.63
2018-03-11T03:53:43.844Z,35.73
2018-03-11T03:56:11.342Z,34.57
2018-03-11T03:58:38.864Z,33.20
2018-03-11T04:01:07.145Z,32.40
2018-03-11T04:03:35.432Z,34.90
2018-03-11T04:06:02.914Z,32.70
2018-03-11T04:08:30.434Z,32.80
2018-03-11T04:10:57.915Z,34.10
2018-03-11T04:13:25.433Z,34.03
2018-03-11T04:15:52.937Z,35.90
2018-03-11T04:18:20.438Z,33.00
2018-03-11T04:20:47.950Z,33.40
2018-03-11T04:23:15.426Z,40.93
2018-03-11T04:25:42.930Z,37.03
2018-03-11T04:28:11.197Z,39.10
2018-03-11T04:30:38.737Z,42.13
2018-03-11T04:33:06.218Z,42.97
2018-03-11T04:35:34.510Z,37.50
2018-03-11T04:38:02.773Z,45.17
2018-03-11T04:40:31.056Z,41.10
2018-03-11T04:42:59.310Z,40.40
2018-03-11T04:45:27.099Z,39.90
2018-03-11T04:47:55.346Z,39.83
2018-03-11T04:50:22.883Z,43.73
2018-03-11T04:52:50.407Z,39.27
2018-03-11T04:55:17.930Z,40.53
2018-03-11T04:57:45.431Z,43.27
2018-03-11T05:00:12.954Z,40.13
2018-03-11T05:02:40.435Z,46.70
2018-03-11T05:05:07.946Z,46.93
2018-03-11T05:07:35.458Z,43.27
2018-03-11T05:10:02.963Z,50.50
2018-03-11T05:12:31.988Z,50.87
2018-03-11T05:15:00.260Z,48.97
2018-03-11T05:17:28.514Z,46.27
2018-03-11T05:19:56.019Z,46.30
2018-03-11T05:22:23.512Z,43.70
2018-03-11T05:24:51.046Z,43.20
2018-03-11T05:27:18.552Z,42.07
2018-03-11T05:29:46.082Z,40.97
2018-03-11T05:32:13.562Z,40.10
2018-03-11T05:34:41.062Z,49.17
2018-03-11T05:37:08.586Z,50.33
2018-03-11T05:39:36.082Z,46.97
2018-03-11T05:42:03.602Z,45.80
2018-03-11T05:44:31.144Z,53.83
2018-03-11T05:46:58.639Z,50.10
2018-03-11T05:49:26.898Z,48.03
2018-03-11T05:51:55.198Z,47.07
2018-03-11T05:54:22.722Z,44.07
2018-03-11T05:56:50.215Z,53.83
2018-03-11T05:59:17.728Z,55.13
2018-03-11T06:01:45.255Z,46.03
2018-03-11T06:04:12.757Z,43.90
2018-03-11T06:06:40.286Z,45.03
2018-03-11T06:09:07.806Z,48.70
2018-03-11T06:11:35.326Z,50.57
2018-03-11T06:14:02.815Z,51.77
2018-03-11T06:16:31.099Z,52.30
2018-03-11T06:18:58.591Z,46.63
2018-03-11T06:21:26.119Z,51.80
2018-03-11T06:23:53.634Z,56.57
2018-03-11T06:26:21.159Z,57.10
2018-03-11T06:28:48.643Z,43.97
2018-03-11T06:31:16.191Z,30.50
2018-03-11T06:33:43.690Z,44.63
2018-03-11T06:36:12.020Z,32.30
2018-03-11T06:38:39.525Z,28.27
2018-03-11T06:41:07.078Z,23.70
2018-03-11T06:43:35.359Z,21.50
2018-03-11T06:46:02.919Z,21.97
2018-03-11T06:48:31.186Z,21.87
2018-03-11T06:50:59.478Z,23.53
2018-03-11T06:53:27.025Z,22.80
2018-03-11T06:55:54.521Z,22.57
2018-03-11T06:58:22.057Z,22.10
2018-03-11T07:00:49.546Z,28.27
2018-03-11T07:03:17.078Z,41.70
2018-03-11T07:05:45.512Z,20.20
2018-03-11T07:08:13.042Z,21.53
2018-03-11T07:10:40.551Z,19.70
2018-03-11T07:13:08.838Z,20.50
2018-03-11T07:15:36.337Z,21.60
2018-03-11T07:18:03.856Z,22.17
2018-03-11T07:20:32.172Z,21.07
2018-03-11T07:22:59.648Z,21.73
2018-03-11T07:25:27.145Z,21.27
2018-03-11T07:27:55.428Z,21.07
2018-03-11T07:30:23.732Z,20.40
2018-03-11T07:32:51.207Z,20.00
2018-03-11T07:35:18.703Z,17.87
2018-03-11T07:37:46.250Z,17.03
2018-03-11T07:40:13.760Z,18.40
2018-03-11T07:42:42.190Z,16.73
2018-03-11T07:45:09.682Z,15.67
2018-03-11T07:47:37.194Z,16.60
2018-03-11T07:50:04.708Z,21.07
2018-03-11T07:52:32.211Z,15.40
2018-03-11T07:54:59.717Z,14.90
2018-03-11T07:57:27.265Z,17.77
2018-03-11T07:59:55.521Z,14.83
2018-03-11T08:02:23.034Z,13.97
2018-03-11T08:04:50.561Z,13.13
2018-03-11T08:07:18.834Z,13.03
2018-03-11T08:09:46.376Z,14.60
2018-03-11T08:12:13.927Z,24.83
2018-03-11T08:14:41.440Z,12.83
2018-03-11T08:17:08.933Z,12.63
2018-03-11T08:19:36.451Z,14.60
2018-03-11T08:22:04.706Z,11.53
2018-03-11T08:24:33.006Z,10.73
2018-03-11T08:27:01.280Z,11.03
2018-03-11T08:29:28.818Z,11.17
2018-03-11T08:31:57.114Z,10.67
2018-03-11T08:34:25.411Z,11.97
2018-03-11T08:36:52.939Z,12.17
2018-03-11T08:39:21.236Z,11.70
2018-03-11T08:41:48.758Z,11.90
2018-03-11T08:44:16.291Z,11.77
2018-03-11T08:46:43.799Z,11.60
2018-03-11T08:49:12.112Z,12.67
2018-03-11T08:51:39.612Z,11.10
2018-03-11T08:54:07.125Z,11.67
2018-03-11T08:56:34.622Z,11.33
2018-03-11T08:59:02.126Z,14.50
2018-03-11T09:01:30.382Z,10.63
2018-03-11T09:03:57.866Z,10.47
2018-03-11T09:06:26.155Z,9.70
2018-03-11T09:08:53.656Z,10.47
2018-03-11T09:11:21.171Z,10.47
2018-03-11T09:13:53.282Z,11.47
2018-03-11T09:16:20.794Z,9.77
2018-03-11T09:18:48.312Z,10.00
2018-03-11T09:21:15.842Z,9.37
2018-03-11T09:23:43.323Z,9.43
2018-03-11T09:26:10.826Z,8.33
2018-03-11T09:28:38.315Z,8.80
2018-03-11T09:31:05.831Z,9.00
2018-03-11T09:33:34.084Z,8.20
2018-03-11T09:36:01.598Z,8.37
2018-03-11T09:38:29.099Z,8.33
2018-03-11T09:40:56.766Z,7.40
2018-03-11T09:43:25.085Z,15.83
2018-03-11T09:45:52.686Z,7.40
2018-03-11T09:48:20.185Z,7.13
2018-03-11T09:50:51.546Z,7.57
2018-03-11T09:53:19.167Z,7.60
2018-03-11T09:55:46.687Z,10.60
2018-03-11T09:58:14.186Z,5.60
2018-03-11T10:00:41.699Z,8.23
2018-03-11T10:03:09.194Z,6.47
2018-03-11T10:05:37.614Z,5.20
2018-03-11T10:08:06.888Z,5.50
2018-03-11T10:10:34.557Z,6.10
2018-03-11T10:13:02.804Z,8.17
2018-03-11T10:15:32.443Z,4.27
2018-03-11T10:17:59.946Z,5.13
2018-03-11T10:20:27.455Z,4.37
2018-03-11T10:22:54.955Z,4.10
2018-03-11T10:25:22.441Z,4.27
2018-03-11T10:27:50.706Z,5.87
2018-03-11T10:30:18.186Z,3.23
2018-03-11T10:32:46.459Z,3.27
2018-03-11T10:35:14.721Z,2.73
2018-03-11T10:37:42.990Z,4.17
2018-03-11T10:40:10.490Z,3.10
2018-03-11T10:42:37.986Z,5.10
2018-03-11T10:45:05.573Z,3.97
2018-03-11T10:47:33.116Z,2.40
2018-03-11T10:50:00.610Z,2.10
2018-03-11T10:52:28.135Z,3.20
2018-03-11T10:54:55.671Z,2.80
2018-03-11T10:57:23.966Z,2.07
2018-03-11T10:59:51.446Z,1.90
2018-03-11T11:02:25.292Z,2.20
2018-03-11T11:04:58.502Z,1.97
2018-03-11T11:07:26.024Z,1.57
2018-03-11T11:09:53.506Z,1.63
2018-03-11T11:12:21.022Z,2.20
2018-03-11T11:14:49.293Z,1.73
2018-03-11T11:17:17.554Z,2.73
2018-03-11T11:19:45.051Z,1.93
2018-03-11T11:22:12.530Z,1.80
2018-03-11T11:24:40.036Z,1.60
2018-03-11T11:27:08.310Z,1.53
2018-03-11T11:29:35.805Z,3.27
2018-03-11T11:32:03.287Z,2.87
2018-03-11T11:34:30.841Z,3.23
2018-03-11T11:36:58.387Z,2.83
2018-03-11T11:39:25.899Z,4.90
2018-03-11T11:41:54.174Z,1.60
2018-03-11T11:44:22.429Z,2.27
2018-03-11T11:46:49.910Z,4.13
2018-03-11T11:49:18.195Z,1.83
2018-03-11T11:51:46.467Z,1.87
2018-03-11T11:54:14.758Z,2.17
2018-03-11T11:56:42.244Z,1.53
2018-03-11T11:59:09.741Z,4.40
2018-03-11T12:01:37.245Z,5.83
2018-03-11T12:04:04.773Z,9.07
2018-03-11T12:06:33.037Z,1.70
2018-03-11T12:09:01.291Z,2.70
2018-03-11T12:11:28.808Z,2.37
2018-03-11T12:13:56.303Z,3.93
2018-03-11T12:16:23.817Z,1.30
2018-03-11T12:18:51.331Z,1.60
2018-03-11T12:21:18.843Z,2.03
2018-03-11T12:23:46.350Z,1.60
2018-03-11T12:26:13.871Z,1.80
2018-03-11T12:28:41.383Z,1.40
2018-03-11T12:31:08.917Z,3.50
2018-03-11T12:33:36.426Z,3.67
2018-03-11T12:36:03.939Z,1.87
2018-03-11T12:38:31.450Z,2.40
2018-03-11T12:40:58.995Z,1.90
2018-03-11T12:43:26.477Z,1.37
2018-03-11T12:45:53.978Z,1.80
2018-03-11T12:48:21.478Z,1.90
2018-03-11T12:50:48.990Z,3.00
2018-03-11T12:53:16.534Z,1.27
2018-03-11T12:55:44.858Z,1.50
2018-03-11T12:58:12.362Z,2.43
2018-03-11T13:00:39.902Z,1.80
2018-03-11T13:03:07.810Z,2.60
2018-03-11T13:05:35.305Z,2.10
2018-03-11T13:08:02.818Z,1.93
2018-03-11T13:10:30.325Z,5.27
2018-03-11T13:12:57.818Z,4.37
2018-03-11T13:15:25.310Z,2.27
2018-03-11T13:17:53.590Z,2.73
2018-03-11T13:20:33.664Z,1.50
2018-03-11T13:23:01.166Z,1.60
2018-03-11T13:25:28.661Z,3.07
2018-03-11T13:28:08.740Z,2.67
2018-03-11T13:30:36.233Z,2.50
2018-03-11T13:33:15.728Z,1.67
2018-03-11T13:35:43.222Z,2.17
2018-03-11T13:38:22.678Z,1.80
2018-03-11T13:40:50.158Z,5.63
2018-03-11T13:43:18.431Z,1.40
2018-03-11T13:45:58.651Z,1.40
2018-03-11T13:48:26.176Z,1.97
2018-03-11T13:50:53.697Z,1.40
2018-03-11T13:53:33.838Z,1.07
2018-03-11T13:56:01.330Z,1.57
2018-03-11T13:58:40.799Z,1.70
2018-03-11T14:01:08.285Z,1.67
2018-03-11T14:03:35.779Z,1.33
2018-03-11T14:06:03.292Z,1.03
2018-03-11T14:08:30.790Z,3.93
2018-03-11T14:10:59.058Z,3.70
2018-03-11T14:13:26.555Z,1.17
2018-03-11T14:15:54.051Z,1.13
2018-03-11T14:18:21.567Z,3.33
2018-03-11T14:20:49.082Z,1.30
2018-03-11T14:23:17.328Z,3.50
2018-03-11T14:25:44.862Z,2.80
2018-03-11T14:28:12.350Z,2.27
2018-03-11T14:30:39.842Z,4.23
2018-03-11T14:33:07.350Z,2.87
2018-03-11T14:35:34.858Z,1.50
2018-03-11T14:38:03.119Z,2.30
2018-03-11T14:40:30.645Z,3.07
2018-03-11T14:42:58.130Z,2.30
2018-03-11T14:45:25.656Z,2.57
2018-03-11T14:47:53.947Z,5.03
2018-03-11T14:50:21.470Z,3.77
2018-03-11T14:52:48.962Z,11.50
2018-03-11T14:55:16.461Z,17.23
2018-03-11T14:57:44.201Z,2.33
2018-03-11T15:00:12.461Z,7.67
2018-03-11T15:02:39.971Z,37.40
2018-03-11T15:05:07.469Z,2.80
2018-03-11T15:07:34.978Z,1.73
2018-03-11T15:10:02.473Z,2.43
2018-03-11T15:12:29.979Z,2.97
2018-03-11T15:14:58.266Z,2.23
2018-03-11T15:17:25.778Z,4.97
2018-03-11T15:19:53.306Z,5.50
2018-03-11T15:22:20.834Z,5.07
2018-03-11T15:24:49.086Z,3.70
2018-03-11T15:27:17.375Z,1.27
2018-03-11T15:29:45.666Z,2.27
2018-03-11T15:32:13.210Z,1.70
2018-03-11T15:34:40.655Z,2.33
2018-03-11T15:37:08.155Z,2.50
2018-03-11T15:39:35.646Z,2.03
2018-03-11T15:42:03.161Z,3.77
2018-03-11T15:44:30.658Z,6.43
2018-03-11T15:46:58.135Z,3.17
2018-03-11T15:49:25.642Z,4.60
2018-03-11T15:51:53.164Z,2.47
2018-03-11T15:54:21.456Z,2.60
2018-03-11T15:56:49.708Z,2.60
2018-03-11T15:59:17.227Z,2.50
2018-03-11T16:01:44.725Z,2.80
2018-03-11T16:04:12.220Z,3.10
2018-03-11T16:06:39.704Z,3.17
2018-03-11T16:09:07.197Z,7.47
2018-03-11T16:11:35.447Z,4.07
2018-03-11T16:14:02.971Z,6.20
2018-03-11T16:16:30.462Z,3.30
2018-03-11T16:18:57.960Z,4.43
2018-03-11T16:21:26.222Z,4.23
2018-03-11T16:23:53.746Z,4.27
2018-03-11T16:26:21.220Z,3.30
2018-03-11T16:28:48.714Z,4.67
2018-03-11T16:31:16.195Z,3.97
2018-03-11T16:33:43.692Z,7.77
2018-03-11T16:36:11.204Z,6.97
2018-03-11T16:38:38.727Z,5.77
2018-03-11T16:41:06.214Z,5.93
2018-03-11T16:43:33.716Z,11.70
2018-03-11T16:46:01.233Z,6.57
2018-03-11T16:48:28.719Z,7.80
2018-03-11T16:50:56.226Z,6.80
2018-03-11T16:53:24.482Z,5.40
2018-03-11T16:55:51.990Z,4.60
2018-03-11T16:58:19.474Z,8.80
2018-03-11T17:00:46.994Z,14.87
2018-03-11T17:03:15.287Z,11.90
2018-03-11T17:05:42.811Z,10.20
2018-03-11T17:08:11.080Z,7.50
2018-03-11T17:10:39.330Z,8.47
2018-03-11T17:13:06.856Z,5.60
2018-03-11T17:15:34.354Z,5.57
2018-03-11T17:18:01.874Z,6.20
2018-03-11T17:20:29.374Z,6.43
2018-03-11T17:22:56.890Z,7.53
2018-03-11T17:25:24.370Z,4.20
2018-03-11T17:27:51.896Z,5.40
2018-03-11T17:30:19.374Z,5.57
2018-03-11T17:32:46.886Z,4.70
2018-03-11T17:35:15.138Z,5.53
2018-03-11T17:37:42.629Z,8.83
2018-03-11T17:40:10.159Z,4.07
2018-03-11T17:42:37.665Z,6.07
2018-03-11T17:45:05.186Z,6.40
2018-03-11T17:47:33.481Z,6.43
2018-03-11T17:50:01.079Z,8.17
2018-03-11T17:52:28.899Z,9.13
2018-03-11T17:54:56.517Z,9.37
2018-03-11T17:57:24.024Z,10.93
2018-03-11T17:59:51.529Z,17.97
2018-03-11T18:02:20.541Z,25.17
2018-03-11T18:04:48.833Z,26.80
2018-03-11T18:07:16.333Z,22.43
2018-03-11T18:09:43.855Z,13.73
2018-03-11T18:12:11.358Z,13.73
2018-03-11T18:14:38.856Z,11.30
2018-03-11T18:17:07.107Z,20.13
2018-03-11T18:19:34.622Z,12.47
2018-03-11T18:22:02.106Z,14.87
2018-03-11T18:24:29.598Z,11.97
2018-03-11T18:26:57.842Z,6.83
2018-03-11T18:29:26.127Z,7.77
2018-03-11T18:31:53.627Z,11.13
2018-03-11T18:34:21.877Z,9.07
2018-03-11T18:36:49.379Z,16.63
2018-03-11T18:39:16.866Z,9.20
2018-03-11T18:41:44.386Z,14.30
2018-03-11T18:44:11.875Z,11.57
2018-03-11T18:46:39.370Z,13.77
2018-03-11T18:49:07.647Z,14.67
2018-03-11T18:51:36.409Z,16.70
2018-03-11T18:54:03.887Z,17.90
2018-03-11T18:56:32.130Z,15.63
2018-03-11T18:58:59.622Z,17.57
2018-03-11T19:01:27.139Z,13.10
2018-03-11T19:03:54.639Z,11.17
2018-03-11T19:06:22.959Z,10.10
2018-03-11T19:08:51.287Z,11.87
2018-03-11T19:11:18.802Z,10.40
2018-03-11T19:13:46.291Z,10.27
2018-03-11T19:16:13.946Z,9.87
2018-03-11T19:18:41.440Z,13.23
2018-03-11T19:21:09.683Z,10.30
2018-03-11T19:23:37.208Z,14.73
2018-03-11T19:26:04.698Z,15.67
2018-03-11T19:28:32.205Z,16.87
2018-03-11T19:30:59.696Z,22.40
2018-03-11T19:33:27.217Z,16.53
2018-03-11T19:35:54.750Z,12.47
2018-03-11T19:38:22.274Z,13.23
2018-03-11T19:40:49.759Z,13.27
2018-03-11T19:43:17.274Z,14.37
2018-03-11T19:45:46.125Z,12.90
2018-03-11T19:48:14.422Z,14.60
2018-03-11T19:50:41.926Z,15.10
2018-03-11T19:53:09.458Z,15.40
2018-03-11T19:55:36.960Z,14.17
2018-03-11T19:58:04.470Z,28.93
2018-03-11T20:00:31.966Z,19.57
2018-03-11T20:03:00.250Z,21.07
2018-03-11T20:05:27.729Z,20.00
2018-03-11T20:07:55.990Z,16.30
2018-03-11T20:10:23.507Z,14.00
2018-03-11T20:12:51.012Z,19.90
2018-03-11T20:15:18.537Z,20.47
2018-03-11T20:17:46.061Z,24.40
2018-03-11T20:20:13.562Z,24.73
2018-03-11T20:22:41.076Z,23.97
2018-03-11T20:25:08.589Z,24.63
2018-03-11T20:27:36.866Z,20.90
2018-03-11T20:30:05.149Z,18.87
2018-03-11T20:32:33.457Z,18.27
2018-03-11T20:35:00.979Z,18.90
2018-03-11T20:37:29.242Z,18.53
2018-03-11T20:40:01.235Z,23.50
2018-03-11T20:42:28.742Z,20.10
2018-03-11T20:44:56.258Z,18.93
2018-03-11T20:47:24.767Z,18.60
2018-03-11T20:49:53.008Z,23.67
2018-03-11T20:52:21.265Z,21.90
2018-03-11T20:54:48.789Z,22.33
2018-03-11T20:57:17.267Z,22.07
2018-03-11T20:59:44.766Z,24.33
2018-03-11T21:02:12.273Z,34.40
2018-03-11T21:04:51.422Z,26.63
2018-03-11T21:07:18.941Z,26.67
2018-03-11T21:09:46.431Z,40.30
2018-03-11T21:12:13.955Z,32.80
2018-03-11T21:14:41.459Z,29.10
2018-03-11T21:17:08.975Z,24.17
2018-03-11T21:19:37.423Z,22.00
2018-03-11T21:22:04.947Z,22.87
2018-03-11T21:24:32.482Z,22.10
2018-03-11T21:27:00.031Z,19.30
2018-03-11T21:29:27.552Z,22.07
2018-03-11T21:31:55.075Z,19.63
2018-03-11T21:34:29.525Z,19.07
2018-03-11T21:36:57.446Z,26.43
2018-03-11T21:39:24.938Z,30.20
2018-03-11T21:41:55.683Z,41.10
2018-03-11T21:44:23.165Z,31.27
2018-03-11T21:46:51.451Z,32.80
2018-03-11T21:49:18.934Z,42.13
2018-03-11T21:51:46.442Z,30.17
2018-03-11T21:54:13.930Z,27.80
2018-03-11T21:56:41.441Z,26.93
2018-03-11T21:59:08.955Z,26.00
2018-03-11T22:01:36.457Z,26.73
2018-03-11T22:04:03.959Z,28.03
2018-03-11T22:06:31.499Z,31.50
2018-03-11T22:09:10.664Z,32.87
2018-03-11T22:11:38.178Z,36.70
2018-03-11T22:14:05.690Z,21.53
2018-03-11T22:16:33.182Z,17.80
2018-03-11T22:19:00.802Z,19.20
2018-03-11T22:21:28.306Z,17.00
2018-03-11T22:23:55.822Z,18.70
2018-03-11T22:26:23.327Z,19.30
2018-03-11T22:28:51.662Z,18.60
2018-03-11T22:31:19.147Z,19.73
2018-03-11T22:33:46.687Z,19.30
2018-03-11T22:36:14.193Z,28.87
2018-03-11T22:38:42.475Z,28.70
2018-03-11T22:41:10.737Z,27.03
2018-03-11T22:43:38.262Z,26.47
2018-03-11T22:46:05.761Z,24.10
2018-03-11T22:48:34.047Z,30.57
2018-03-11T22:51:02.299Z,32.27
2018-03-11T22:53:29.805Z,41.73
2018-03-11T22:55:57.319Z,33.67
2018-03-11T22:58:24.814Z,36.90
2018-03-11T23:00:52.317Z,38.00
2018-03-11T23:03:19.817Z,59.33
2018-03-11T23:05:47.313Z,41.43
2018-03-11T23:08:14.829Z,32.87
2018-03-11T23:10:43.111Z,29.07
2018-03-11T23:13:10.623Z,32.33
2018-03-11T23:15:38.147Z,28.97
2018-03-11T23:18:05.666Z,38.30
2018-03-11T23:20:33.938Z,39.40
2018-03-11T23:23:01.419Z,39.50
2018-03-11T23:25:28.927Z,32.97
2018-03-11T23:27:56.422Z,32.13
2018-03-11T23:30:24.726Z,34.90
2018-03-11T23:32:52.218Z,29.27
2018-03-11T23:35:19.738Z,37.53
2018-03-11T23:37:47.236Z,37.67
2018-03-11T23:40:14.738Z,39.93
2018-03-11T23:42:42.232Z,35.17
2018-03-11T23:45:09.750Z,37.17
2018-03-11T23:47:38.026Z,35.97
2018-03-11T23:50:06.306Z,31.83
2018-03-11T23:52:33.795Z,31.43
2018-03-11T23:55:01.306Z,29.33
2018-03-11T23:57:29.561Z,31.60
2018-03-11T23:59:57.066Z,30.67
